9WN4 weather

CLOSED Rag Wing Airport
Antigo, Wisconsin, United States

Public forecast

Using degrees Fahrenheit for public forecast. Weather courtesy of forecast.io.

Closest aviation weather report (METAR) to Rag Wing Airport

Closest report is Langlade County Airport, 5.4 nm (10.1 km) NW. Retrieved 2019/10/23 19:35 UTC (17 minutes ago):

KAIG 231935Z AUTO 26007KT 10SM OVC026 05/01 A2983 RMK AO2 T00520005

Closest aviation forecast (TAF) to Rag Wing Airport

Closest forecast is Wausau Downtown Airport, 27.0 nm (50.1 km) WSW. Retrieved 2019/10/23 18:40 UTC (1 hour ago):

TAF KAUW 231738Z 2318/2418 28008G15KT P6SM BKN025 FM232100 29006KT P6SM OVC035 FM240100 30006KT P6SM BKN035 FM241000 30007KT P6SM BKN020 FM241400 29008KT P6SM BKN015